sensor_id;sensor_type;location;lat;lon;timestamp;temperature;humidity
30037;DHT22;36325;51.512;-0.382;2023-02-12T00:01:19;10.20;99.90
30037;DHT22;36325;51.512;-0.382;2023-02-12T00:03:47;10.20;99.90
30037;DHT22;36325;51.512;-0.382;2023-02-12T00:06:14;10.20;99.90
30037;DHT22;36325;51.512;-0.382;2023-02-12T00:08:42;10.20;99.90
30037;DHT22;36325;51.512;-0.382;2023-02-12T00:11:18;10.20;99.90
30037;DHT22;36325;51.512;-0.382;2023-02-12T00:13:45;10.20;99.90
30037;DHT22;36325;51.512;-0.382;2023-02-12T00:16:16;10.20;99.90
30037;DHT22;36325;51.512;-0.382;2023-02-12T00:18:45;10.30;99.90
30037;DHT22;36325;51.512;-0.382;2023-02-12T00:21:12;10.30;99.90
30037;DHT22;36325;51.512;-0.382;2023-02-12T00:23:40;10.20;99.90
30037;DHT22;36325;51.512;-0.382;2023-02-12T00:26:18;10.20;99.90
30037;DHT22;36325;51.512;-0.382;2023-02-12T00:28:49;10.20;99.90
30037;DHT22;36325;51.512;-0.382;2023-02-12T00:31:25;10.20;99.90
30037;DHT22;36325;51.512;-0.382;2023-02-12T00:33:55;10.20;99.90
30037;DHT22;36325;51.512;-0.382;2023-02-12T00:36:24;10.20;99.90
30037;DHT22;36325;51.512;-0.382;2023-02-12T00:38:53;10.20;99.90
30037;DHT22;36325;51.512;-0.382;2023-02-12T00:41:24;10.20;99.90
30037;DHT22;36325;51.512;-0.382;2023-02-12T00:43:51;10.20;99.90
30037;DHT22;36325;51.512;-0.382;2023-02-12T00:46:19;10.10;99.90
30037;DHT22;36325;51.512;-0.382;2023-02-12T00:48:47;10.10;99.90
30037;DHT22;36325;51.512;-0.382;2023-02-12T00:51:18;10.10;99.90
30037;DHT22;36325;51.512;-0.382;2023-02-12T00:53:45;10.10;99.90
30037;DHT22;36325;51.512;-0.382;2023-02-12T00:56:13;10.00;99.90
30037;DHT22;36325;51.512;-0.382;2023-02-12T00:58:40;10.00;99.90
30037;DHT22;36325;51.512;-0.382;2023-02-12T01:01:08;10.00;99.90
30037;DHT22;36325;51.512;-0.382;2023-02-12T01:03:35;10.00;99.90
30037;DHT22;36325;51.512;-0.382;2023-02-12T01:06:03;10.10;99.90
30037;DHT22;36325;51.512;-0.382;2023-02-12T01:08:31;10.10;99.90
30037;DHT22;36325;51.512;-0.382;2023-02-12T01:11:01;10.10;99.90
30037;DHT22;36325;51.512;-0.382;2023-02-12T01:13:29;10.10;99.90
30037;DHT22;36325;51.512;-0.382;2023-02-12T01:16:02;10.10;99.90
30037;DHT22;36325;51.512;-0.382;2023-02-12T01:18:30;10.10;99.90
30037;DHT22;36325;51.512;-0.382;2023-02-12T01:20:58;10.10;99.90
30037;DHT22;36325;51.512;-0.382;2023-02-12T01:23:25;10.10;99.90
30037;DHT22;36325;51.512;-0.382;2023-02-12T01:25:52;10.10;99.90
30037;DHT22;36325;51.512;-0.382;2023-02-12T01:28:21;10.10;99.90
30037;DHT22;36325;51.512;-0.382;2023-02-12T01:30:49;10.10;99.90
30037;DHT22;36325;51.512;-0.382;2023-02-12T01:33:16;10.10;99.90
30037;DHT22;36325;51.512;-0.382;2023-02-12T01:35:44;10.10;99.90
30037;DHT22;36325;51.512;-0.382;2023-02-12T01:38:16;10.10;99.90
30037;DHT22;36325;51.512;-0.382;2023-02-12T01:40:44;10.10;99.90
30037;DHT22;36325;51.512;-0.382;2023-02-12T01:43:12;10.10;99.90
30037;DHT22;36325;51.512;-0.382;2023-02-12T01:48:07;10.10;99.90
30037;DHT22;36325;51.512;-0.382;2023-02-12T01:50:34;10.10;99.90
30037;DHT22;36325;51.512;-0.382;2023-02-12T01:53:03;10.10;99.90
30037;DHT22;36325;51.512;-0.382;2023-02-12T01:55:30;10.10;99.90
30037;DHT22;36325;51.512;-0.382;2023-02-12T01:57:58;10.10;99.90
30037;DHT22;36325;51.512;-0.382;2023-02-12T02:00:26;10.10;99.90
30037;DHT22;36325;51.512;-0.382;2023-02-12T02:02:59;10.10;99.90
30037;DHT22;36325;51.512;-0.382;2023-02-12T02:08:21;10.10;99.90
30037;DHT22;36325;51.512;-0.382;2023-02-12T02:10:49;10.00;99.90
30037;DHT22;36325;51.512;-0.382;2023-02-12T02:13:16;10.00;99.90
30037;DHT22;36325;51.512;-0.382;2023-02-12T02:16:24;10.00;99.90
30037;DHT22;36325;51.512;-0.382;2023-02-12T02:18:57;9.90;99.90
30037;DHT22;36325;51.512;-0.382;2023-02-12T02:27:32;9.90;99.90
30037;DHT22;36325;51.512;-0.382;2023-02-12T02:32:56;9.90;99.90
30037;DHT22;36325;51.512;-0.382;2023-02-12T02:41:25;9.80;99.90
30037;DHT22;36325;51.512;-0.382;2023-02-12T02:43:55;9.80;99.90
30037;DHT22;36325;51.512;-0.382;2023-02-12T02:46:46;9.80;99.90
30037;DHT22;36325;51.512;-0.382;2023-02-12T02:49:16;9.80;99.90
30037;DHT22;36325;51.512;-0.382;2023-02-12T02:51:47;9.80;99.90
30037;DHT22;36325;51.512;-0.382;2023-02-12T02:54:25;9.80;99.90
30037;DHT22;36325;51.512;-0.382;2023-02-12T02:56:57;9.80;99.90
30037;DHT22;36325;51.512;-0.382;2023-02-12T02:59:32;9.80;99.90
30037;DHT22;36325;51.512;-0.382;2023-02-12T03:02:08;9.80;99.90
30037;DHT22;36325;51.512;-0.382;2023-02-12T03:04:41;9.80;99.90
30037;DHT22;36325;51.512;-0.382;2023-02-12T03:07:20;9.80;99.90
30037;DHT22;36325;51.512;-0.382;2023-02-12T03:09:56;9.80;99.90
30037;DHT22;36325;51.512;-0.382;2023-02-12T03:12:39;9.80;99.90
30037;DHT22;36325;51.512;-0.382;2023-02-12T03:16:17;9.80;99.90
30037;DHT22;36325;51.512;-0.382;2023-02-12T03:18:30;9.80;99.90
30037;DHT22;36325;51.512;-0.382;2023-02-12T03:21:06;9.80;99.90
30037;DHT22;36325;51.512;-0.382;2023-02-12T03:23:57;9.80;99.90
30037;DHT22;36325;51.512;-0.382;2023-02-12T03:26:44;9.70;99.90
30037;DHT22;36325;51.512;-0.382;2023-02-12T03:29:13;9.70;99.90
30037;DHT22;36325;51.512;-0.382;2023-02-12T03:32:01;9.70;99.90
30037;DHT22;36325;51.512;-0.382;2023-02-12T03:39:55;9.70;99.90
30037;DHT22;36325;51.512;-0.382;2023-02-12T03:45:42;9.60;99.90
30037;DHT22;36325;51.512;-0.382;2023-02-12T03:48:25;9.70;99.90
30037;DHT22;36325;51.512;-0.382;2023-02-12T03:50:57;9.60;99.90
30037;DHT22;36325;51.512;-0.382;2023-02-12T03:53:28;9.60;99.90
30037;DHT22;36325;51.512;-0.382;2023-02-12T03:56:06;9.60;99.90
30037;DHT22;36325;51.512;-0.382;2023-02-12T03:58:36;9.60;99.90
30037;DHT22;36325;51.512;-0.382;2023-02-12T04:01:05;9.60;99.90
30037;DHT22;36325;51.512;-0.382;2023-02-12T04:03:33;9.60;99.90
30037;DHT22;36325;51.512;-0.382;2023-02-12T04:06:00;9.60;99.90
30037;DHT22;36325;51.512;-0.382;2023-02-12T04:08:28;9.60;99.90
30037;DHT22;36325;51.512;-0.382;2023-02-12T04:16:34;9.60;99.90
30037;DHT22;36325;51.512;-0.382;2023-02-12T04:19:05;9.60;99.90
30037;DHT22;36325;51.512;-0.382;2023-02-12T04:21:49;9.60;99.90
30037;DHT22;36325;51.512;-0.382;2023-02-12T04:24:46;9.60;99.90
30037;DHT22;36325;51.512;-0.382;2023-02-12T04:27:29;9.60;99.90
30037;DHT22;36325;51.512;-0.382;2023-02-12T04:30:06;9.60;99.90
30037;DHT22;36325;51.512;-0.382;2023-02-12T04:32:46;9.60;99.90
30037;DHT22;36325;51.512;-0.382;2023-02-12T04:38:22;9.60;99.90
30037;DHT22;36325;51.512;-0.382;2023-02-12T04:40:51;9.60;99.90
30037;DHT22;36325;51.512;-0.382;2023-02-12T04:43:31;9.70;99.90
30037;DHT22;36325;51.512;-0.382;2023-02-12T04:46:03;9.70;99.90
30037;DHT22;36325;51.512;-0.382;2023-02-12T04:48:31;9.70;99.90
30037;DHT22;36325;51.512;-0.382;2023-02-12T04:51:06;9.70;99.90
30037;DHT22;36325;51.512;-0.382;2023-02-12T04:53:48;9.70;99.90
30037;DHT22;36325;51.512;-0.382;2023-02-12T04:56:24;9.70;99.90
30037;DHT22;36325;51.512;-0.382;2023-02-12T04:58:59;9.80;99.90
30037;DHT22;36325;51.512;-0.382;2023-02-12T05:01:26;9.70;99.90
30037;DHT22;36325;51.512;-0.382;2023-02-12T05:03:57;9.70;99.90
30037;DHT22;36325;51.512;-0.382;2023-02-12T05:06:24;9.70;99.90
30037;DHT22;36325;51.512;-0.382;2023-02-12T05:08:52;9.70;99.90
30037;DHT22;36325;51.512;-0.382;2023-02-12T05:11:20;9.70;99.90
30037;DHT22;36325;51.512;-0.382;2023-02-12T05:13:51;9.70;99.90
30037;DHT22;36325;51.512;-0.382;2023-02-12T05:16:20;9.70;99.90
30037;DHT22;36325;51.512;-0.382;2023-02-12T05:18:47;9.70;99.90
30037;DHT22;36325;51.512;-0.382;2023-02-12T05:21:16;9.80;99.90
30037;DHT22;36325;51.512;-0.382;2023-02-12T05:23:44;9.70;99.90
30037;DHT22;36325;51.512;-0.382;2023-02-12T05:26:14;9.80;99.90
30037;DHT22;36325;51.512;-0.382;2023-02-12T05:31:14;9.80;99.90
30037;DHT22;36325;51.512;-0.382;2023-02-12T05:33:42;9.80;99.90
30037;DHT22;36325;51.512;-0.382;2023-02-12T05:36:12;9.80;99.90
30037;DHT22;36325;51.512;-0.382;2023-02-12T05:38:41;9.80;99.90
30037;DHT22;36325;51.512;-0.382;2023-02-12T05:41:17;9.70;99.90
30037;DHT22;36325;51.512;-0.382;2023-02-12T05:43:45;9.70;99.90
30037;DHT22;36325;51.512;-0.382;2023-02-12T05:46:19;9.70;99.90
30037;DHT22;36325;51.512;-0.382;2023-02-12T05:48:46;9.70;99.90
30037;DHT22;36325;51.512;-0.382;2023-02-12T05:51:17;9.70;99.90
30037;DHT22;36325;51.512;-0.382;2023-02-12T05:53:51;9.60;99.90
30037;DHT22;36325;51.512;-0.382;2023-02-12T05:56:28;9.70;99.90
30037;DHT22;36325;51.512;-0.382;2023-02-12T05:58:59;9.60;99.90
30037;DHT22;36325;51.512;-0.382;2023-02-12T06:01:31;9.70;99.90
30037;DHT22;36325;51.512;-0.382;2023-02-12T06:04:04;9.70;99.90
30037;DHT22;36325;51.512;-0.382;2023-02-12T06:06:32;9.70;99.90
30037;DHT22;36325;51.512;-0.382;2023-02-12T06:09:01;9.70;99.90
30037;DHT22;36325;51.512;-0.382;2023-02-12T06:11:28;9.60;99.90
30037;DHT22;36325;51.512;-0.382;2023-02-12T06:13:55;9.60;99.90
30037;DHT22;36325;51.512;-0.382;2023-02-12T06:16:25;9.60;99.90
30037;DHT22;36325;51.512;-0.382;2023-02-12T06:18:54;9.60;99.90
30037;DHT22;36325;51.512;-0.382;2023-02-12T06:21:24;9.60;99.90
30037;DHT22;36325;51.512;-0.382;2023-02-12T06:23:53;9.50;99.90
30037;DHT22;36325;51.512;-0.382;2023-02-12T06:28:48;9.50;99.90
30037;DHT22;36325;51.512;-0.382;2023-02-12T06:31:23;9.60;99.90
30037;DHT22;36325;51.512;-0.382;2023-02-12T06:33:51;9.60;99.90
30037;DHT22;36325;51.512;-0.382;2023-02-12T06:36:18;9.50;99.90
30037;DHT22;36325;51.512;-0.382;2023-02-12T06:38:48;9.50;99.90
30037;DHT22;36325;51.512;-0.382;2023-02-12T06:41:15;9.60;99.90
30037;DHT22;36325;51.512;-0.382;2023-02-12T06:43:43;9.50;99.90
30037;DHT22;36325;51.512;-0.382;2023-02-12T06:46:10;9.60;99.90
30037;DHT22;36325;51.512;-0.382;2023-02-12T06:48:38;9.60;99.90
30037;DHT22;36325;51.512;-0.382;2023-02-12T06:51:08;9.60;99.90
30037;DHT22;36325;51.512;-0.382;2023-02-12T06:53:37;9.60;99.90
30037;DHT22;36325;51.512;-0.382;2023-02-12T06:56:06;9.60;99.90
30037;DHT22;36325;51.512;-0.382;2023-02-12T06:58:43;9.60;99.90
30037;DHT22;36325;51.512;-0.382;2023-02-12T07:01:12;9.60;99.90
30037;DHT22;36325;51.512;-0.382;2023-02-12T07:03:41;9.60;99.90
30037;DHT22;36325;51.512;-0.382;2023-02-12T07:06:09;9.60;99.90
30037;DHT22;36325;51.512;-0.382;2023-02-12T07:08:37;9.60;99.90
30037;DHT22;36325;51.512;-0.382;2023-02-12T07:11:05;9.60;99.90
30037;DHT22;36325;51.512;-0.382;2023-02-12T07:13:33;9.60;99.90
30037;DHT22;36325;51.512;-0.382;2023-02-12T07:16:05;9.60;99.90
30037;DHT22;36325;51.512;-0.382;2023-02-12T07:18:34;9.60;99.90
30037;DHT22;36325;51.512;-0.382;2023-02-12T07:21:04;9.60;99.90
30037;DHT22;36325;51.512;-0.382;2023-02-12T07:23:32;9.60;99.90
30037;DHT22;36325;51.512;-0.382;2023-02-12T07:26:06;9.60;99.90
30037;DHT22;36325;51.512;-0.382;2023-02-12T07:28:34;9.60;99.90
30037;DHT22;36325;51.512;-0.382;2023-02-12T07:31:07;9.60;99.90
30037;DHT22;36325;51.512;-0.382;2023-02-12T07:33:36;9.60;99.90
30037;DHT22;36325;51.512;-0.382;2023-02-12T07:36:07;9.60;99.90
30037;DHT22;36325;51.512;-0.382;2023-02-12T07:38:35;9.60;99.90
30037;DHT22;36325;51.512;-0.382;2023-02-12T07:41:14;9.60;99.90
30037;DHT22;36325;51.512;-0.382;2023-02-12T07:43:44;9.70;99.90
30037;DHT22;36325;51.512;-0.382;2023-02-12T07:46:14;9.60;99.90
30037;DHT22;36325;51.512;-0.382;2023-02-12T07:48:44;9.60;99.90
30037;DHT22;36325;51.512;-0.382;2023-02-12T07:51:14;9.60;99.90
30037;DHT22;36325;51.512;-0.382;2023-02-12T07:53:42;9.60;99.90
30037;DHT22;36325;51.512;-0.382;2023-02-12T07:56:17;9.60;99.90
30037;DHT22;36325;51.512;-0.382;2023-02-12T07:58:47;9.60;99.90
30037;DHT22;36325;51.512;-0.382;2023-02-12T08:01:23;9.60;99.90
30037;DHT22;36325;51.512;-0.382;2023-02-12T08:03:51;9.50;99.90
30037;DHT22;36325;51.512;-0.382;2023-02-12T08:06:24;9.60;99.90
30037;DHT22;36325;51.512;-0.382;2023-02-12T08:08:54;9.60;99.90
30037;DHT22;36325;51.512;-0.382;2023-02-12T08:11:22;9.70;99.90
30037;DHT22;36325;51.512;-0.382;2023-02-12T08:13:50;9.60;99.90
30037;DHT22;36325;51.512;-0.382;2023-02-12T08:16:19;9.60;99.90
30037;DHT22;36325;51.512;-0.382;2023-02-12T08:18:48;9.70;99.90
30037;DHT22;36325;51.512;-0.382;2023-02-12T08:21:20;9.70;99.90
30037;DHT22;36325;51.512;-0.382;2023-02-12T08:23:49;9.70;99.90
30037;DHT22;36325;51.512;-0.382;2023-02-12T08:26:27;9.70;99.90
30037;DHT22;36325;51.512;-0.382;2023-02-12T08:29:06;9.70;99.90
30037;DHT22;36325;51.512;-0.382;2023-02-12T08:31:36;9.80;99.90
30037;DHT22;36325;51.512;-0.382;2023-02-12T08:34:05;9.70;99.90
30037;DHT22;36325;51.512;-0.382;2023-02-12T08:36:37;9.80;99.90
30037;DHT22;36325;51.512;-0.382;2023-02-12T08:39:06;9.80;99.90
30037;DHT22;36325;51.512;-0.382;2023-02-12T08:41:34;9.80;99.90
30037;DHT22;36325;51.512;-0.382;2023-02-12T08:44:03;9.80;99.90
30037;DHT22;36325;51.512;-0.382;2023-02-12T08:46:34;9.90;99.90
30037;DHT22;36325;51.512;-0.382;2023-02-12T08:49:04;9.90;99.90
30037;DHT22;36325;51.512;-0.382;2023-02-12T08:51:33;10.00;99.90
30037;DHT22;36325;51.512;-0.382;2023-02-12T08:54:04;9.90;99.90
30037;DHT22;36325;51.512;-0.382;2023-02-12T08:56:35;10.00;99.90
30037;DHT22;36325;51.512;-0.382;2023-02-12T08:59:05;10.10;99.90
30037;DHT22;36325;51.512;-0.382;2023-02-12T09:01:35;10.10;99.90
30037;DHT22;36325;51.512;-0.382;2023-02-12T09:04:05;10.10;99.90
30037;DHT22;36325;51.512;-0.382;2023-02-12T09:06:34;10.20;99.90
30037;DHT22;36325;51.512;-0.382;2023-02-12T09:09:04;10.20;99.90
30037;DHT22;36325;51.512;-0.382;2023-02-12T09:11:33;10.20;99.90
30037;DHT22;36325;51.512;-0.382;2023-02-12T09:14:05;10.20;99.90
30037;DHT22;36325;51.512;-0.382;2023-02-12T09:16:34;10.30;99.90
30037;DHT22;36325;51.512;-0.382;2023-02-12T09:19:03;10.30;99.90
30037;DHT22;36325;51.512;-0.382;2023-02-12T09:21:30;10.40;99.90
30037;DHT22;36325;51.512;-0.382;2023-02-12T09:23:57;10.40;99.90
30037;DHT22;36325;51.512;-0.382;2023-02-12T09:26:27;10.40;99.90
30037;DHT22;36325;51.512;-0.382;2023-02-12T09:28:54;10.50;99.90
30037;DHT22;36325;51.512;-0.382;2023-02-12T09:31:32;10.50;99.90
30037;DHT22;36325;51.512;-0.382;2023-02-12T09:34:02;10.50;99.90
30037;DHT22;36325;51.512;-0.382;2023-02-12T09:36:30;10.40;99.90
30037;DHT22;36325;51.512;-0.382;2023-02-12T09:38:58;10.30;99.90
30037;DHT22;36325;51.512;-0.382;2023-02-12T09:44:19;10.20;99.90
30037;DHT22;36325;51.512;-0.382;2023-02-12T09:50:23;10.20;99.90
30037;DHT22;36325;51.512;-0.382;2023-02-12T09:52:43;10.10;99.90
30037;DHT22;36325;51.512;-0.382;2023-02-12T09:55:14;10.10;99.90
30037;DHT22;36325;51.512;-0.382;2023-02-12T09:57:42;10.10;99.90
30037;DHT22;36325;51.512;-0.382;2023-02-12T10:00:21;10.10;99.90
30037;DHT22;36325;51.512;-0.382;2023-02-12T10:02:53;10.00;99.90
30037;DHT22;36325;51.512;-0.382;2023-02-12T10:05:31;10.00;99.90
30037;DHT22;36325;51.512;-0.382;2023-02-12T10:27:15;10.00;99.90
30037;DHT22;36325;51.512;-0.382;2023-02-12T10:29:45;10.00;99.90
30037;DHT22;36325;51.512;-0.382;2023-02-12T10:34:45;10.00;99.90
30037;DHT22;36325;51.512;-0.382;2023-02-12T10:37:33;10.00;99.90
30037;DHT22;36325;51.512;-0.382;2023-02-12T10:40:29;9.90;99.90
30037;DHT22;36325;51.512;-0.382;2023-02-12T10:43:00;9.80;99.90
30037;DHT22;36325;51.512;-0.382;2023-02-12T10:45:32;9.80;99.90
30037;DHT22;36325;51.512;-0.382;2023-02-12T10:53:36;9.80;99.90
30037;DHT22;36325;51.512;-0.382;2023-02-12T10:56:23;9.80;99.90
30037;DHT22;36325;51.512;-0.382;2023-02-12T10:58:57;9.80;99.90
30037;DHT22;36325;51.512;-0.382;2023-02-12T11:01:32;9.80;99.90
30037;DHT22;36325;51.512;-0.382;2023-02-12T11:04:24;9.80;99.90
30037;DHT22;36325;51.512;-0.382;2023-02-12T11:07:04;9.80;99.90
30037;DHT22;36325;51.512;-0.382;2023-02-12T11:14:52;9.80;99.90
30037;DHT22;36325;51.512;-0.382;2023-02-12T11:17:26;9.80;99.90
30037;DHT22;36325;51.512;-0.382;2023-02-12T11:22:36;9.80;99.90
30037;DHT22;36325;51.512;-0.382;2023-02-12T11:25:14;9.90;99.90
30037;DHT22;36325;51.512;-0.382;2023-02-12T11:27:42;9.80;99.90
30037;DHT22;36325;51.512;-0.382;2023-02-12T11:32:38;9.70;99.90
30037;DHT22;36325;51.512;-0.382;2023-02-12T11:35:14;9.70;99.90
30037;DHT22;36325;51.512;-0.382;2023-02-12T11:37:45;9.70;99.90
30037;DHT22;36325;51.512;-0.382;2023-02-12T11:40:19;9.70;99.90
30037;DHT22;36325;51.512;-0.382;2023-02-12T11:42:57;9.70;99.90
30037;DHT22;36325;51.512;-0.382;2023-02-12T11:45:34;9.70;99.90
30037;DHT22;36325;51.512;-0.382;2023-02-12T11:48:20;9.80;99.90
30037;DHT22;36325;51.512;-0.382;2023-02-12T11:50:51;9.80;99.90
30037;DHT22;36325;51.512;-0.382;2023-02-12T11:53:31;9.80;99.90
30037;DHT22;36325;51.512;-0.382;2023-02-12T11:56:06;9.80;99.90
30037;DHT22;36325;51.512;-0.382;2023-02-12T11:58:34;9.70;99.90
30037;DHT22;36325;51.512;-0.382;2023-02-12T12:01:03;9.70;99.90
30037;DHT22;36325;51.512;-0.382;2023-02-12T12:03:42;9.80;99.90
30037;DHT22;36325;51.512;-0.382;2023-02-12T12:06:35;9.80;99.90
30037;DHT22;36325;51.512;-0.382;2023-02-12T12:09:14;9.80;99.90
30037;DHT22;36325;51.512;-0.382;2023-02-12T12:19:49;9.80;99.90
30037;DHT22;36325;51.512;-0.382;2023-02-12T12:27:57;9.90;99.90
30037;DHT22;36325;51.512;-0.382;2023-02-12T12:33:53;10.00;99.90
30037;DHT22;36325;51.512;-0.382;2023-02-12T12:36:44;10.00;99.90
30037;DHT22;36325;51.512;-0.382;2023-02-12T12:54:08;10.00;99.90
30037;DHT22;36325;51.512;-0.382;2023-02-12T12:57:00;9.90;99.90
30037;DHT22;36325;51.512;-0.382;2023-02-12T13:10:59;10.30;99.90
30037;DHT22;36325;51.512;-0.382;2023-02-12T13:13:33;10.40;99.90
30037;DHT22;36325;51.512;-0.382;2023-02-12T13:16:14;10.50;99.90
30037;DHT22;36325;51.512;-0.382;2023-02-12T13:19:13;10.50;99.90
30037;DHT22;36325;51.512;-0.382;2023-02-12T13:21:57;10.60;99.90
30037;DHT22;36325;51.512;-0.382;2023-02-12T13:24:42;10.70;99.90
30037;DHT22;36325;51.512;-0.382;2023-02-12T13:27:15;10.70;99.90
30037;DHT22;36325;51.512;-0.382;2023-02-12T13:32:43;10.60;99.90
30037;DHT22;36325;51.512;-0.382;2023-02-12T13:35:18;10.50;99.90
30037;DHT22;36325;51.512;-0.382;2023-02-12T13:37:52;10.40;99.90
30037;DHT22;36325;51.512;-0.382;2023-02-12T13:40:22;10.50;99.90
30037;DHT22;36325;51.512;-0.382;2023-02-12T13:48:52;10.40;99.90
30037;DHT22;36325;51.512;-0.382;2023-02-12T13:51:29;10.30;99.90
30037;DHT22;36325;51.512;-0.382;2023-02-12T13:56:50;10.30;99.90
30037;DHT22;36325;51.512;-0.382;2023-02-12T14:02:42;10.20;99.90
30037;DHT22;36325;51.512;-0.382;2023-02-12T14:07:20;10.30;99.90
30037;DHT22;36325;51.512;-0.382;2023-02-12T14:15:02;10.40;99.90
30037;DHT22;36325;51.512;-0.382;2023-02-12T14:22:55;10.60;99.90
30037;DHT22;36325;51.512;-0.382;2023-02-12T14:27:53;10.70;99.90
30037;DHT22;36325;51.512;-0.382;2023-02-12T14:30:29;10.70;99.90
30037;DHT22;36325;51.512;-0.382;2023-02-12T14:33:18;10.70;99.90
30037;DHT22;36325;51.512;-0.382;2023-02-12T14:35:48;10.70;99.90
30037;DHT22;36325;51.512;-0.382;2023-02-12T14:40:46;10.70;99.90
30037;DHT22;36325;51.512;-0.382;2023-02-12T14:46:41;10.60;99.90
30037;DHT22;36325;51.512;-0.382;2023-02-12T14:48:59;10.50;99.90
30037;DHT22;36325;51.512;-0.382;2023-02-12T14:51:42;10.50;99.90
30037;DHT22;36325;51.512;-0.382;2023-02-12T14:54:49;10.30;99.90
30037;DHT22;36325;51.512;-0.382;2023-02-12T14:59:55;10.30;99.90
30037;DHT22;36325;51.512;-0.382;2023-02-12T15:02:27;10.20;99.90
30037;DHT22;36325;51.512;-0.382;2023-02-12T15:05:04;10.20;99.90
30037;DHT22;36325;51.512;-0.382;2023-02-12T15:07:42;10.20;99.90
30037;DHT22;36325;51.512;-0.382;2023-02-12T15:10:15;10.20;99.90
30037;DHT22;36325;51.512;-0.382;2023-02-12T15:15:54;10.00;99.90
30037;DHT22;36325;51.512;-0.382;2023-02-12T15:18:23;10.10;99.90
30037;DHT22;36325;51.512;-0.382;2023-02-12T15:20:59;10.00;99.90
30037;DHT22;36325;51.512;-0.382;2023-02-12T15:23:44;10.00;99.90
30037;DHT22;36325;51.512;-0.382;2023-02-12T15:26:19;10.00;99.90
30037;DHT22;36325;51.512;-0.382;2023-02-12T15:28:51;10.00;99.90
30037;DHT22;36325;51.512;-0.382;2023-02-12T15:31:25;10.00;99.90
30037;DHT22;36325;51.512;-0.382;2023-02-12T15:33:55;10.00;99.90
30037;DHT22;36325;51.512;-0.382;2023-02-12T15:36:26;10.00;99.90
30037;DHT22;36325;51.512;-0.382;2023-02-12T15:39:05;10.00;99.90
30037;DHT22;36325;51.512;-0.382;2023-02-12T15:41:37;10.00;99.90
30037;DHT22;36325;51.512;-0.382;2023-02-12T15:44:21;10.10;99.90
30037;DHT22;36325;51.512;-0.382;2023-02-12T15:47:02;10.10;99.90
30037;DHT22;36325;51.512;-0.382;2023-02-12T15:49:33;10.00;99.90
30037;DHT22;36325;51.512;-0.382;2023-02-12T15:52:17;10.00;99.90
30037;DHT22;36325;51.512;-0.382;2023-02-12T15:54:47;10.00;99.90
30037;DHT22;36325;51.512;-0.382;2023-02-12T15:57:22;10.00;99.90
30037;DHT22;36325;51.512;-0.382;2023-02-12T15:59:52;9.90;99.90
30037;DHT22;36325;51.512;-0.382;2023-02-12T16:02:25;9.90;99.90
30037;DHT22;36325;51.512;-0.382;2023-02-12T16:04:59;9.90;99.90
30037;DHT22;36325;51.512;-0.382;2023-02-12T16:07:31;9.90;99.90
30037;DHT22;36325;51.512;-0.382;2023-02-12T16:10:01;9.90;99.90
30037;DHT22;36325;51.512;-0.382;2023-02-12T16:12:32;9.90;99.90
30037;DHT22;36325;51.512;-0.382;2023-02-12T16:15:00;9.90;99.90
30037;DHT22;36325;51.512;-0.382;2023-02-12T16:17:32;10.00;99.90
30037;DHT22;36325;51.512;-0.382;2023-02-12T16:20:01;10.00;99.90
30037;DHT22;36325;51.512;-0.382;2023-02-12T16:22:32;10.00;99.90
30037;DHT22;36325;51.512;-0.382;2023-02-12T16:25:00;10.00;99.90
30037;DHT22;36325;51.512;-0.382;2023-02-12T16:27:31;10.00;99.90
30037;DHT22;36325;51.512;-0.382;2023-02-12T16:30:05;10.00;99.90
30037;DHT22;36325;51.512;-0.382;2023-02-12T16:42:35;9.90;99.90
30037;DHT22;36325;51.512;-0.382;2023-02-12T16:50:58;9.80;99.90
30037;DHT22;36325;51.512;-0.382;2023-02-12T16:53:35;9.80;99.90
30037;DHT22;36325;51.512;-0.382;2023-02-12T16:56:04;9.80;99.90
30037;DHT22;36325;51.512;-0.382;2023-02-12T16:58:31;9.80;99.90
30037;DHT22;36325;51.512;-0.382;2023-02-12T17:01:02;9.80;99.90
30037;DHT22;36325;51.512;-0.382;2023-02-12T17:03:30;9.80;99.90
30037;DHT22;36325;51.512;-0.382;2023-02-12T17:05:59;9.70;99.90
30037;DHT22;36325;51.512;-0.382;2023-02-12T17:08:26;9.70;99.90
30037;DHT22;36325;51.512;-0.382;2023-02-12T17:10:53;9.80;99.90
30037;DHT22;36325;51.512;-0.382;2023-02-12T17:13:21;9.80;99.90
30037;DHT22;36325;51.512;-0.382;2023-02-12T17:15:58;9.80;99.90
30037;DHT22;36325;51.512;-0.382;2023-02-12T17:18:28;9.80;99.90
30037;DHT22;36325;51.512;-0.382;2023-02-12T17:21:01;9.80;99.90
30037;DHT22;36325;51.512;-0.382;2023-02-12T17:23:30;9.70;99.90
30037;DHT22;36325;51.512;-0.382;2023-02-12T17:25:57;9.80;99.90
30037;DHT22;36325;51.512;-0.382;2023-02-12T17:28:25;9.80;99.90
30037;DHT22;36325;51.512;-0.382;2023-02-12T17:30:55;9.80;99.90
30037;DHT22;36325;51.512;-0.382;2023-02-12T17:33:24;9.70;99.90
30037;DHT22;36325;51.512;-0.382;2023-02-12T17:35:51;9.70;99.90
30037;DHT22;36325;51.512;-0.382;2023-02-12T17:38:19;9.70;99.90
30037;DHT22;36325;51.512;-0.382;2023-02-12T17:40:46;9.70;99.90
30037;DHT22;36325;51.512;-0.382;2023-02-12T17:43:13;9.70;99.90
30037;DHT22;36325;51.512;-0.382;2023-02-12T17:45:41;9.70;99.90
30037;DHT22;36325;51.512;-0.382;2023-02-12T17:48:10;9.70;99.90
30037;DHT22;36325;51.512;-0.382;2023-02-12T17:50:38;9.60;99.90
30037;DHT22;36325;51.512;-0.382;2023-02-12T17:53:06;9.60;99.90
30037;DHT22;36325;51.512;-0.382;2023-02-12T17:55:38;9.60;99.90
30037;DHT22;36325;51.512;-0.382;2023-02-12T17:58:06;9.50;99.90
30037;DHT22;36325;51.512;-0.382;2023-02-12T18:00:34;9.50;99.90
30037;DHT22;36325;51.512;-0.382;2023-02-12T18:03:01;9.50;99.90
30037;DHT22;36325;51.512;-0.382;2023-02-12T18:05:29;9.50;99.90
30037;DHT22;36325;51.512;-0.382;2023-02-12T18:07:56;9.50;99.90
30037;DHT22;36325;51.512;-0.382;2023-02-12T18:10:24;9.50;99.90
30037;DHT22;36325;51.512;-0.382;2023-02-12T18:12:52;9.60;99.90
30037;DHT22;36325;51.512;-0.382;2023-02-12T18:15:19;9.50;99.90
30037;DHT22;36325;51.512;-0.382;2023-02-12T18:17:47;9.50;99.90
30037;DHT22;36325;51.512;-0.382;2023-02-12T18:20:15;9.50;99.90
30037;DHT22;36325;51.512;-0.382;2023-02-12T18:22:43;9.50;99.90
30037;DHT22;36325;51.512;-0.382;2023-02-12T18:25:11;9.50;99.90
30037;DHT22;36325;51.512;-0.382;2023-02-12T18:27:39;9.60;99.90
30037;DHT22;36325;51.512;-0.382;2023-02-12T18:30:08;9.50;99.90
30037;DHT22;36325;51.512;-0.382;2023-02-12T18:32:35;9.50;99.90
30037;DHT22;36325;51.512;-0.382;2023-02-12T18:35:04;9.50;99.90
30037;DHT22;36325;51.512;-0.382;2023-02-12T18:37:33;9.50;99.90
30037;DHT22;36325;51.512;-0.382;2023-02-12T18:40:00;9.50;99.90
30037;DHT22;36325;51.512;-0.382;2023-02-12T18:42:28;9.50;99.90
30037;DHT22;36325;51.512;-0.382;2023-02-12T18:44:56;9.50;99.90
30037;DHT22;36325;51.512;-0.382;2023-02-12T18:47:23;9.50;99.90
30037;DHT22;36325;51.512;-0.382;2023-02-12T18:49:51;9.50;99.90
30037;DHT22;36325;51.512;-0.382;2023-02-12T18:52:18;9.50;99.90
30037;DHT22;36325;51.512;-0.382;2023-02-12T18:54:45;9.50;99.90
30037;DHT22;36325;51.512;-0.382;2023-02-12T18:57:13;9.50;99.90
30037;DHT22;36325;51.512;-0.382;2023-02-12T18:59:40;9.50;99.90
30037;DHT22;36325;51.512;-0.382;2023-02-12T19:02:11;9.50;99.90